createdAt,value
2018-01-04T00:01:49.987Z,98507.64
2018-01-04T00:04:15.747Z,98514.52
2018-01-04T00:06:41.494Z,98521.87
2018-01-04T00:09:07.255Z,98527.28
2018-01-04T00:11:33.011Z,98533.89
2018-01-04T00:13:58.799Z,98533.84
2018-01-04T00:16:24.541Z,98536.66
2018-01-04T00:18:50.294Z,98508.55
2018-01-04T00:21:16.049Z,98540.05
2018-01-04T00:23:41.823Z,98547.59
2018-01-04T00:26:08.251Z,98544.89
2018-01-04T00:28:33.999Z,98553.39
2018-01-04T00:30:59.771Z,98552.64
2018-01-04T00:33:25.532Z,98559.37
2018-01-04T00:35:51.287Z,98560.83
2018-01-04T00:38:17.039Z,98570.05
2018-01-04T00:40:42.784Z,98580.56
2018-01-04T00:43:08.534Z,98580.59
2018-01-04T00:45:34.295Z,98585.25
2018-01-04T00:48:00.042Z,98587.49
2018-01-04T00:50:25.802Z,98601.00
2018-01-04T00:52:51.668Z,98597.82
2018-01-04T00:55:17.434Z,98596.18
2018-01-04T00:57:43.194Z,98610.86
2018-01-04T01:00:08.979Z,98604.50
2018-01-04T01:02:34.717Z,98615.09
2018-01-04T01:05:00.483Z,98608.60
2018-01-04T01:07:26.245Z,98627.93
2018-01-04T01:09:52.036Z,98630.23
2018-01-04T01:12:17.787Z,98632.46
2018-01-04T01:14:43.546Z,98635.05
2018-01-04T01:17:09.301Z,98637.13
2018-01-04T01:19:35.062Z,98638.59
2018-01-04T01:22:00.815Z,98641.85
2018-01-04T01:24:26.571Z,98639.67
2018-01-04T01:26:52.331Z,98645.72
2018-01-04T01:29:18.079Z,98648.28
2018-01-04T01:31:43.847Z,98652.33
2018-01-04T01:34:09.598Z,98653.86
2018-01-04T01:36:35.359Z,98662.56
2018-01-04T01:39:01.114Z,98671.45
2018-01-04T01:41:26.870Z,98671.48
2018-01-04T01:43:52.621Z,98676.30
2018-01-04T01:46:18.371Z,98674.86
2018-01-04T01:48:44.137Z,98680.58
2018-01-04T01:51:09.898Z,98689.21
2018-01-04T01:53:35.646Z,98701.62
2018-01-04T01:56:01.427Z,98697.95
2018-01-04T01:58:27.179Z,98696.20
2018-01-04T02:00:52.928Z,98695.47
2018-01-04T02:03:18.675Z,98710.45
2018-01-04T02:05:44.423Z,98716.63
2018-01-04T02:08:10.182Z,98717.56
2018-01-04T02:10:35.938Z,98713.13
2018-01-04T02:13:08.788Z,98728.02
2018-01-04T02:15:34.532Z,98728.48
2018-01-04T02:18:12.621Z,98728.70
2018-01-04T02:20:50.634Z,98739.98
2018-01-04T02:26:33.825Z,98741.00
2018-01-04T02:28:59.611Z,98748.50
2018-01-04T02:31:37.828Z,98746.60
2018-01-04T02:34:16.083Z,98747.85
2018-01-04T02:36:54.340Z,98758.01
2018-01-04T02:39:32.456Z,98767.52
2018-01-04T02:42:10.734Z,98762.41
2018-01-04T02:44:38.473Z,98769.50
2018-01-04T02:47:04.235Z,98775.12
2018-01-04T02:49:29.994Z,98779.22
2018-01-04T02:51:55.746Z,98780.91
2018-01-04T02:54:21.518Z,98787.28
2018-01-04T02:56:47.258Z,98781.54
2018-01-04T02:59:13.003Z,98787.55
2018-01-04T03:01:38.750Z,98789.04
2018-01-04T03:04:04.491Z,98790.16
2018-01-04T03:06:30.257Z,98795.83
2018-01-04T03:08:56.013Z,98767.82
2018-01-04T03:11:21.766Z,98799.70
2018-01-04T03:13:47.543Z,98805.02
2018-01-04T03:16:13.305Z,98803.66
2018-01-04T03:18:39.067Z,98806.22
2018-01-04T03:21:04.821Z,98805.00
2018-01-04T03:23:36.505Z,98814.05
2018-01-04T03:26:08.486Z,98802.89
2018-01-04T03:28:40.434Z,98806.39
2018-01-04T03:31:12.272Z,98818.27
2018-01-04T03:33:44.179Z,98820.68
2018-01-04T03:36:16.135Z,98818.23
2018-01-04T03:38:47.890Z,98823.77
2018-01-04T03:44:19.496Z,98826.20
2018-01-04T03:46:51.301Z,98825.41
2018-01-04T03:52:21.923Z,98827.86
2018-01-04T03:54:53.942Z,98831.61
2018-01-04T03:57:25.751Z,98827.30
2018-01-04T04:02:55.231Z,98840.58
2018-01-04T04:05:26.994Z,98839.73
2018-01-04T04:07:52.747Z,98845.05
2018-01-04T04:10:18.514Z,98842.39
2018-01-04T04:12:44.267Z,98854.62
2018-01-04T04:15:10.050Z,98856.97
2018-01-04T04:17:35.803Z,98870.34
2018-01-04T04:20:01.565Z,98865.94
2018-01-04T04:22:27.311Z,98870.08
2018-01-04T04:24:53.059Z,98871.27
2018-01-04T04:27:18.818Z,98875.37
2018-01-04T04:29:44.575Z,98877.17
2018-01-04T04:32:10.326Z,98884.08
2018-01-04T04:34:36.068Z,98897.61
2018-01-04T04:37:01.828Z,98898.11
2018-01-04T04:39:27.575Z,98898.80
2018-01-04T04:41:53.327Z,98911.58
2018-01-04T04:44:19.070Z,98913.03
2018-01-04T04:46:44.831Z,98913.34
2018-01-04T04:49:10.584Z,98921.91
2018-01-04T04:51:36.359Z,98916.91
2018-01-04T04:54:02.113Z,98920.73
2018-01-04T04:56:27.876Z,98924.35
2018-01-04T04:58:53.635Z,98934.59
2018-01-04T05:01:19.407Z,98935.73
2018-01-04T05:03:45.160Z,98932.95
2018-01-04T05:06:10.915Z,98937.08
2018-01-04T05:08:36.667Z,98931.23
2018-01-04T05:11:02.427Z,98943.83
2018-01-04T05:13:28.174Z,98935.73
2018-01-04T05:15:53.930Z,98941.73
2018-01-04T05:18:19.678Z,98942.50
2018-01-04T05:20:45.440Z,98935.64
2018-01-04T05:23:11.182Z,98936.80
2018-01-04T05:25:36.948Z,98934.36
2018-01-04T05:28:02.728Z,98934.47
2018-01-04T05:30:28.478Z,98934.30
2018-01-04T05:32:54.230Z,98930.32
2018-01-04T05:35:19.975Z,98941.09
2018-01-04T05:37:45.738Z,98944.63
2018-01-04T05:40:11.495Z,98935.50
2018-01-04T05:42:37.266Z,98942.78
2018-01-04T05:45:04.278Z,98937.10
2018-01-04T05:47:30.027Z,98945.55
2018-01-04T05:49:55.774Z,98950.69
2018-01-04T05:52:21.535Z,98953.67
2018-01-04T05:54:47.293Z,98950.83
2018-01-04T05:57:13.099Z,98954.47
2018-01-04T05:59:38.798Z,98955.02
2018-01-04T06:02:04.558Z,98958.56
2018-01-04T06:04:30.310Z,98966.99
2018-01-04T06:06:56.075Z,98975.18
2018-01-04T06:09:21.828Z,98973.97
2018-01-04T06:11:47.595Z,98980.95
2018-01-04T06:14:13.346Z,98984.84
2018-01-04T06:16:39.096Z,98986.99
2018-01-04T06:19:04.864Z,98985.52
2018-01-04T06:21:30.610Z,98984.48
2018-01-04T06:23:56.358Z,98992.34
2018-01-04T06:26:22.098Z,98987.78
2018-01-04T06:28:47.850Z,98983.02
2018-01-04T06:31:13.603Z,98992.36
2018-01-04T06:33:39.362Z,98992.02
2018-01-04T06:36:05.119Z,98995.41
2018-01-04T06:38:30.879Z,98992.56
2018-01-04T06:40:56.630Z,98993.53
2018-01-04T06:43:22.378Z,98987.52
2018-01-04T06:45:48.124Z,98995.13
2018-01-04T06:48:13.894Z,98994.83
2018-01-04T06:50:39.640Z,98996.74
2018-01-04T06:53:05.384Z,99002.96
2018-01-04T06:55:31.132Z,99002.69
2018-01-04T06:57:56.886Z,99004.41
2018-01-04T07:00:22.635Z,99014.05
2018-01-04T07:02:48.376Z,99004.30
2018-01-04T07:05:14.135Z,99010.33
2018-01-04T07:07:39.903Z,99017.41
2018-01-04T07:10:05.667Z,99022.84
2018-01-04T07:12:31.435Z,99018.77
2018-01-04T07:14:57.179Z,99025.16
2018-01-04T07:17:22.926Z,99029.87
2018-01-04T07:19:48.662Z,99026.70
2018-01-04T07:22:14.448Z,99019.62
2018-01-04T07:24:40.191Z,99028.30
2018-01-04T07:27:05.933Z,99030.28
2018-01-04T07:29:31.695Z,99034.83
2018-01-04T07:31:57.458Z,99039.44
2018-01-04T07:34:23.199Z,99048.33
2018-01-04T07:36:48.951Z,99055.77
2018-01-04T07:39:14.696Z,99057.64
2018-01-04T07:41:40.430Z,99064.57
2018-01-04T07:44:06.187Z,99066.45
2018-01-04T07:46:31.966Z,99066.30
2018-01-04T07:48:57.711Z,99070.19
2018-01-04T07:51:23.450Z,99068.43
2018-01-04T07:53:49.207Z,99073.58
2018-01-04T07:56:14.957Z,99070.40
2018-01-04T07:58:40.719Z,99072.06
2018-01-04T08:01:06.472Z,99070.20
2018-01-04T08:03:32.246Z,99075.87
2018-01-04T08:05:58.002Z,99071.78
2018-01-04T08:08:23.760Z,99069.59
2018-01-04T08:10:49.531Z,99060.31
2018-01-04T08:13:15.281Z,99056.43
2018-01-04T08:15:41.031Z,99060.41
2018-01-04T08:18:06.778Z,99064.69
2018-01-04T08:20:32.543Z,99065.50
2018-01-04T08:22:58.326Z,99064.53
2018-01-04T08:25:24.084Z,99069.72
2018-01-04T08:27:49.835Z,99074.08
2018-01-04T08:30:15.611Z,99074.86
2018-01-04T08:32:41.376Z,99078.84
2018-01-04T08:35:07.159Z,99075.78
2018-01-04T08:37:32.912Z,99079.83
2018-01-04T08:39:58.688Z,99084.63
2018-01-04T08:42:24.430Z,99081.52
2018-01-04T08:44:50.171Z,99079.16
2018-01-04T08:47:15.918Z,99079.95
2018-01-04T08:49:41.663Z,99082.50
2018-01-04T08:52:07.422Z,99083.83
2018-01-04T08:54:33.172Z,99085.63
2018-01-04T08:56:58.908Z,99079.02
2018-01-04T08:59:24.651Z,99084.16
2018-01-04T09:01:50.411Z,99084.58
2018-01-04T09:04:16.166Z,99085.08
2018-01-04T09:06:41.921Z,99085.13
2018-01-04T09:09:07.677Z,99087.77
2018-01-04T09:11:33.439Z,99091.30
2018-01-04T09:13:59.915Z,99089.94
2018-01-04T09:16:27.097Z,99092.01
2018-01-04T09:18:52.950Z,99097.16
2018-01-04T09:21:18.683Z,99097.11
2018-01-04T09:23:44.433Z,99098.86
2018-01-04T09:26:10.182Z,99097.55
2018-01-04T09:28:35.936Z,99097.98
2018-01-04T09:31:01.698Z,99104.52
2018-01-04T09:33:27.459Z,99103.64
2018-01-04T09:35:53.195Z,99111.90
2018-01-04T09:38:18.963Z,99104.30
2018-01-04T09:40:44.724Z,99103.76
2018-01-04T09:43:10.478Z,99099.39
2018-01-04T09:45:36.219Z,99101.52
2018-01-04T09:48:01.976Z,99105.00
2018-01-04T09:50:27.710Z,99108.89
2018-01-04T09:52:53.455Z,99107.57
2018-01-04T09:55:19.216Z,99109.66
2018-01-04T09:57:44.978Z,99110.37
2018-01-04T10:00:10.995Z,99112.00
2018-01-04T10:02:36.504Z,99107.48
2018-01-04T10:05:02.248Z,99105.78
2018-01-04T10:07:27.991Z,99109.28
2018-01-04T10:09:53.759Z,99099.14
2018-01-04T10:12:19.530Z,99101.77
2018-01-04T10:14:45.283Z,99101.30
2018-01-04T10:17:11.408Z,99103.04
2018-01-04T10:19:37.165Z,99099.05
2018-01-04T10:22:02.911Z,99104.34
2018-01-04T10:24:28.667Z,99107.41
2018-01-04T10:26:54.403Z,99099.05
2018-01-04T10:29:20.210Z,99107.47
2018-01-04T10:31:45.925Z,99101.66
2018-01-04T10:34:11.672Z,99117.30
2018-01-04T10:36:37.424Z,99106.87
2018-01-04T10:39:03.221Z,99111.69
2018-01-04T10:41:28.978Z,99108.13
2018-01-04T10:43:54.738Z,99113.32
2018-01-04T10:46:20.511Z,99110.53
2018-01-04T10:48:46.272Z,99100.84
2018-01-04T10:51:12.023Z,99102.10
2018-01-04T10:53:37.775Z,99103.03
2018-01-04T10:56:03.519Z,99095.15
2018-01-04T10:58:29.258Z,99096.95
2018-01-04T11:00:55.022Z,99095.14
2018-01-04T11:03:20.778Z,99092.45
2018-01-04T11:05:46.542Z,99098.41
2018-01-04T11:08:12.294Z,99095.24
2018-01-04T11:10:38.031Z,99094.25
2018-01-04T11:13:03.788Z,99100.59
2018-01-04T11:15:29.544Z,99094.23
2018-01-04T11:17:55.279Z,99094.12
2018-01-04T11:20:21.027Z,99090.41
2018-01-04T11:22:46.785Z,99085.25
2018-01-04T11:25:12.542Z,99082.88
2018-01-04T11:27:38.296Z,99076.24
2018-01-04T11:30:04.048Z,99063.44
2018-01-04T11:32:29.803Z,99066.56
2018-01-04T11:34:55.539Z,99069.31
2018-01-04T11:37:21.336Z,99064.87
2018-01-04T11:39:47.083Z,99070.14
2018-01-04T11:42:12.838Z,99071.09
2018-01-04T11:44:38.588Z,99067.70
2018-01-04T11:47:04.352Z,99070.09
2018-01-04T11:49:30.098Z,99062.59
2018-01-04T11:51:55.866Z,99058.20
2018-01-04T11:54:21.615Z,99062.77
2018-01-04T11:56:47.374Z,99057.33
2018-01-04T11:59:13.141Z,99052.02
2018-01-04T12:01:38.913Z,99049.27
2018-01-04T12:04:04.667Z,99039.05
2018-01-04T12:06:30.411Z,99044.38
2018-01-04T12:08:56.221Z,99047.77
2018-01-04T12:11:21.963Z,99049.77
2018-01-04T12:13:47.711Z,99043.13
2018-01-04T12:16:13.471Z,99045.18
2018-01-04T12:18:39.222Z,99039.16
2018-01-04T12:21:04.972Z,99035.36
2018-01-04T12:23:30.727Z,99041.05
2018-01-04T12:25:56.487Z,99047.31
2018-01-04T12:28:22.255Z,99041.01
2018-01-04T12:30:48.020Z,99051.39
2018-01-04T12:33:13.779Z,99040.25
2018-01-04T12:35:39.525Z,99042.20
2018-01-04T12:38:05.282Z,99044.37
2018-01-04T12:40:31.060Z,99049.76
2018-01-04T12:42:56.834Z,99039.81
2018-01-04T12:45:22.573Z,99043.20
2018-01-04T12:47:48.327Z,99035.09
2018-01-04T12:50:14.084Z,99030.43
2018-01-04T12:52:39.841Z,99029.61
2018-01-04T12:55:05.607Z,99029.36
2018-01-04T12:57:31.399Z,99021.73
2018-01-04T12:59:57.158Z,99025.22
2018-01-04T13:02:22.893Z,99022.53
2018-01-04T13:04:48.642Z,99017.34
2018-01-04T13:07:14.378Z,99015.47
2018-01-04T13:09:40.138Z,99020.39
2018-01-04T13:12:05.880Z,99021.88
2018-01-04T13:14:31.622Z,99017.19
2018-01-04T13:16:57.379Z,99011.43
2018-01-04T13:19:23.135Z,99010.87
2018-01-04T13:21:48.863Z,99002.87
2018-01-04T13:24:14.617Z,99014.77
2018-01-04T13:26:40.355Z,99009.39
2018-01-04T13:29:06.110Z,99012.97
2018-01-04T13:31:31.859Z,99015.77
2018-01-04T13:33:57.598Z,99007.65
2018-01-04T13:36:23.347Z,99010.44
2018-01-04T13:38:49.107Z,99003.42
2018-01-04T13:41:14.863Z,99003.75
2018-01-04T13:43:40.599Z,98995.80
2018-01-04T13:46:06.358Z,98997.26
2018-01-04T13:48:32.107Z,98999.06
2018-01-04T13:50:57.858Z,98995.48
2018-01-04T13:53:23.614Z,98997.62
2018-01-04T13:55:49.372Z,99003.89
2018-01-04T13:58:15.123Z,99002.63
2018-01-04T14:00:40.882Z,99005.76
2018-01-04T14:03:06.803Z,99010.06
2018-01-04T14:05:32.677Z,99011.45
2018-01-04T14:07:58.926Z,99010.52
2018-01-04T14:10:24.665Z,99004.81
2018-01-04T14:12:50.419Z,99002.06
2018-01-04T14:15:16.170Z,99000.80
2018-01-04T14:17:41.911Z,99004.27
2018-01-04T14:20:07.670Z,98998.99
2018-01-04T14:22:33.427Z,99003.51
2018-01-04T14:24:59.183Z,98996.86
2018-01-04T14:27:25.099Z,99004.00
2018-01-04T14:29:50.843Z,99004.55
2018-01-04T14:32:16.994Z,99006.74
2018-01-04T14:34:42.749Z,99005.67
2018-01-04T14:37:15.435Z,99001.05
2018-01-04T14:39:41.183Z,99000.78
2018-01-04T14:42:06.937Z,98999.60
2018-01-04T14:44:32.678Z,99001.91
2018-01-04T14:46:58.441Z,98998.84
2018-01-04T14:49:24.198Z,98998.63
2018-01-04T14:51:49.964Z,98994.27
2018-01-04T14:54:15.717Z,98997.00
2018-01-04T14:56:41.450Z,98991.77
2018-01-04T14:59:07.194Z,98992.20
2018-01-04T15:01:32.930Z,98992.26
2018-01-04T15:03:58.667Z,98980.56
2018-01-04T15:06:24.399Z,98978.94
2018-01-04T15:08:50.142Z,98982.55
2018-01-04T15:11:15.886Z,98974.68
2018-01-04T15:13:41.663Z,98972.59
2018-01-04T15:16:07.408Z,98969.92
2018-01-04T15:18:33.161Z,98965.98
2018-01-04T15:20:58.901Z,98962.98
2018-01-04T15:23:24.663Z,98956.42
2018-01-04T15:25:50.409Z,98956.16
2018-01-04T15:28:16.159Z,98948.77
2018-01-04T15:30:41.939Z,98948.72
2018-01-04T15:33:07.675Z,98946.97
2018-01-04T15:35:33.428Z,98950.46
2018-01-04T15:37:59.177Z,98948.73
2018-01-04T15:40:24.939Z,98948.83
2018-01-04T15:42:50.678Z,98950.58
2018-01-04T15:45:16.439Z,98952.98
2018-01-04T15:47:42.182Z,98940.28
2018-01-04T15:50:07.943Z,98945.03
2018-01-04T15:52:33.702Z,98941.47
2018-01-04T15:54:59.458Z,98941.52
2018-01-04T15:57:25.194Z,98937.96
2018-01-04T15:59:50.948Z,98939.59
2018-01-04T16:02:16.678Z,98935.14
2018-01-04T16:04:42.420Z,98939.91
2018-01-04T16:07:08.154Z,98932.04
2018-01-04T16:09:33.902Z,98926.85
2018-01-04T16:11:59.642Z,98931.10
2018-01-04T16:14:25.391Z,98919.44
2018-01-04T16:16:51.145Z,98916.42
2018-01-04T16:19:16.891Z,98909.97
2018-01-04T16:21:42.636Z,98911.66
2018-01-04T16:24:08.404Z,98901.10
2018-01-04T16:26:34.187Z,98902.17
2018-01-04T16:28:59.930Z,98895.61
2018-01-04T16:31:25.683Z,98895.48
2018-01-04T16:33:51.415Z,98895.47
2018-01-04T16:36:17.159Z,98891.53
2018-01-04T16:38:42.908Z,98884.59
2018-01-04T16:41:08.681Z,98877.28
2018-01-04T16:43:34.446Z,98876.42
2018-01-04T16:46:00.199Z,98875.16
2018-01-04T16:48:26.951Z,98863.72
2018-01-04T16:50:52.702Z,98856.46
2018-01-04T16:53:18.438Z,98856.46
2018-01-04T16:55:44.187Z,98856.86
2018-01-04T16:58:09.995Z,98849.96
2018-01-04T17:00:35.746Z,98848.66
2018-01-04T17:03:01.490Z,98849.73
2018-01-04T17:05:27.246Z,98843.98
2018-01-04T17:07:53.287Z,98842.16
2018-01-04T17:10:19.056Z,98839.09
2018-01-04T17:12:44.800Z,98832.48
2018-01-04T17:15:10.558Z,98840.71
2018-01-04T17:17:36.309Z,98834.59
2018-01-04T17:20:02.171Z,98826.53
2018-01-04T17:22:27.919Z,98822.22
2018-01-04T17:24:53.654Z,98820.36
2018-01-04T17:27:19.398Z,98809.35
2018-01-04T17:29:45.284Z,98805.86
2018-01-04T17:32:11.034Z,98803.78
2018-01-04T17:34:36.765Z,98799.84
2018-01-04T17:37:02.507Z,98798.05
2018-01-04T17:39:28.314Z,98789.03
2018-01-04T17:41:54.039Z,98781.78
2018-01-04T17:44:19.824Z,98781.42
2018-01-04T17:46:45.588Z,98791.80
2018-01-04T17:49:11.346Z,98787.05
2018-01-04T17:51:37.102Z,98787.37
2018-01-04T17:54:02.892Z,98785.67
2018-01-04T17:56:28.663Z,98789.03
2018-01-04T17:58:54.420Z,98786.36
2018-01-04T18:01:20.184Z,98785.48
2018-01-04T18:03:45.955Z,98785.91
2018-01-04T18:06:11.699Z,98786.34
2018-01-04T18:08:37.458Z,98785.53
2018-01-04T18:11:03.213Z,98785.05
2018-01-04T18:13:29.014Z,98780.66
2018-01-04T18:15:54.750Z,98779.73
2018-01-04T18:18:20.503Z,98773.98
2018-01-04T18:20:46.266Z,98768.67
2018-01-04T18:23:12.060Z,98766.53
2018-01-04T18:25:37.770Z,98763.92
2018-01-04T18:28:03.530Z,98761.22
2018-01-04T18:30:29.274Z,98753.41
2018-01-04T18:32:55.018Z,98756.91
2018-01-04T18:35:20.774Z,98749.10
2018-01-04T18:37:46.556Z,98753.92
2018-01-04T18:40:12.315Z,98747.30
2018-01-04T18:42:38.094Z,98743.86
2018-01-04T18:45:03.838Z,98741.55
2018-01-04T18:47:29.590Z,98738.92
2018-01-04T18:49:55.346Z,98733.29
2018-01-04T18:52:21.106Z,98724.12
2018-01-04T18:54:46.883Z,98721.05
2018-01-04T18:57:12.692Z,98723.72
2018-01-04T18:59:38.411Z,98721.09
2018-01-04T19:02:04.162Z,98721.05
2018-01-04T19:04:29.931Z,98721.05
2018-01-04T19:06:55.731Z,98723.23
2018-01-04T19:09:21.494Z,98720.59
2018-01-04T19:11:47.272Z,98718.36
2018-01-04T19:14:13.037Z,98712.73
2018-01-04T19:16:38.791Z,98711.84
2018-01-04T19:19:04.544Z,98704.80
2018-01-04T19:21:30.280Z,98705.15
2018-01-04T19:23:56.025Z,98699.48
2018-01-04T19:26:21.771Z,98702.29
2018-01-04T19:28:47.535Z,98700.03
2018-01-04T19:31:13.294Z,98695.74
2018-01-04T19:33:46.075Z,98686.05
2018-01-04T19:36:11.838Z,98677.30
2018-01-04T19:38:37.591Z,98686.92
2018-01-04T19:41:03.354Z,98677.73
2018-01-04T19:43:29.094Z,98677.67
2018-01-04T19:45:54.851Z,98674.66
2018-01-04T19:48:20.595Z,98673.78
2018-01-04T19:50:46.346Z,98667.69
2018-01-04T19:53:12.208Z,98669.06
2018-01-04T19:55:37.963Z,98657.23
2018-01-04T19:58:03.731Z,98662.98
2018-01-04T20:00:29.591Z,98655.94
2018-01-04T20:02:55.338Z,98662.55
2018-01-04T20:05:21.086Z,98658.75
2018-01-04T20:07:46.826Z,98653.52
2018-01-04T20:10:12.595Z,98654.49
2018-01-04T20:12:38.343Z,98651.44
2018-01-04T20:15:04.095Z,98648.12
2018-01-04T20:17:29.866Z,98650.69
2018-01-04T20:19:55.615Z,98638.52
2018-01-04T20:22:21.366Z,98643.84
2018-01-04T20:24:47.103Z,98631.20
2018-01-04T20:27:12.856Z,98635.67
2018-01-04T20:29:38.598Z,98642.28
2018-01-04T20:32:04.348Z,98643.61
2018-01-04T20:34:30.099Z,98633.59
2018-01-04T20:36:55.859Z,98635.86
2018-01-04T20:39:21.634Z,98627.19
2018-01-04T20:41:47.395Z,98614.12
2018-01-04T20:44:13.146Z,98605.70
2018-01-04T20:46:38.926Z,98599.64
2018-01-04T20:49:04.671Z,98598.33
2018-01-04T20:51:30.440Z,98594.89
2018-01-04T20:53:56.198Z,98583.22
2018-01-04T20:56:21.946Z,98577.62
2018-01-04T20:58:47.702Z,98580.70
2018-01-04T21:01:13.443Z,98578.95
2018-01-04T21:03:39.203Z,98567.34
2018-01-04T21:06:04.958Z,98561.22
2018-01-04T21:08:30.727Z,98565.22
2018-01-04T21:10:56.513Z,98555.59
2018-01-04T21:13:22.266Z,98545.61
2018-01-04T21:15:47.999Z,98552.05
2018-01-04T21:18:13.780Z,98550.88
2018-01-04T21:20:39.535Z,98544.38
2018-01-04T21:23:05.300Z,98544.44
2018-01-04T21:25:31.039Z,98535.77
2018-01-04T21:27:56.832Z,98523.47
2018-01-04T21:30:22.574Z,98521.11
2018-01-04T21:32:48.326Z,98510.69
2018-01-04T21:35:14.070Z,98506.80
2018-01-04T21:37:39.839Z,98504.27
2018-01-04T21:40:05.606Z,98503.39
2018-01-04T21:42:31.350Z,98504.06
2018-01-04T21:44:57.106Z,98515.84
2018-01-04T21:47:22.855Z,98506.73
2018-01-04T21:49:48.602Z,98504.61
2018-01-04T21:52:14.341Z,98500.56
2018-01-04T21:54:40.101Z,98495.31
2018-01-04T21:57:05.842Z,98491.44
2018-01-04T21:59:31.595Z,98492.77
2018-01-04T22:01:57.331Z,98493.64
2018-01-04T22:04:23.083Z,98486.64
2018-01-04T22:06:48.835Z,98477.84
2018-01-04T22:09:14.575Z,98477.01
2018-01-04T22:11:40.329Z,98467.83
2018-01-04T22:14:06.071Z,98459.03
2018-01-04T22:16:31.830Z,98462.16
2018-01-04T22:18:57.570Z,98461.66
2018-01-04T22:21:23.335Z,98465.56
2018-01-04T22:23:49.091Z,98458.96
2018-01-04T22:26:14.839Z,98464.64
2018-01-04T22:28:40.571Z,98452.39
2018-01-04T22:31:06.326Z,98444.11
2018-01-04T22:33:32.087Z,98443.34
2018-01-04T22:35:57.851Z,98442.41
2018-01-04T22:38:23.613Z,98433.73
2018-01-04T22:40:49.376Z,98434.09
2018-01-04T22:43:15.127Z,98443.20
2018-01-04T22:45:40.868Z,98433.19
2018-01-04T22:48:06.643Z,98425.25
2018-01-04T22:50:32.401Z,98428.35
2018-01-04T22:52:58.154Z,98426.56
2018-01-04T22:55:23.895Z,98422.63
2018-01-04T22:57:49.656Z,98422.17
2018-01-04T23:00:15.416Z,98422.17
2018-01-04T23:02:41.175Z,98418.60
2018-01-04T23:05:06.927Z,98404.97
2018-01-04T23:07:32.696Z,98406.28
2018-01-04T23:09:58.446Z,98408.41
2018-01-04T23:12:24.200Z,98403.91
2018-01-04T23:14:49.960Z,98400.77
2018-01-04T23:17:15.726Z,98398.89
2018-01-04T23:19:41.473Z,98394.34
2018-01-04T23:22:07.230Z,98392.44
2018-01-04T23:24:32.974Z,98410.64
2018-01-04T23:26:58.734Z,98398.77
2018-01-04T23:29:24.500Z,98381.08
2018-01-04T23:31:50.247Z,98384.14
2018-01-04T23:34:16.012Z,98380.13
2018-01-04T23:36:41.765Z,98376.48
2018-01-04T23:39:07.527Z,98379.75
2018-01-04T23:41:33.294Z,98374.30
2018-01-04T23:43:59.051Z,98377.48
2018-01-04T23:46:24.806Z,98379.81
2018-01-04T23:48:50.565Z,98368.87
2018-01-04T23:51:16.298Z,98369.98
2018-01-04T23:53:42.060Z,98370.47
2018-01-04T23:56:07.818Z,98362.01
2018-01-04T23:58:33.575Z,98361.28
